createdAt,value
2023-05-15T00:00:48.669Z,18.22
2023-05-15T00:03:16.150Z,18.30
2023-05-15T00:05:42.062Z,18.39
2023-05-15T00:08:06.954Z,18.41
2023-05-15T00:10:30.376Z,18.35
2023-05-15T00:12:55.387Z,18.25
2023-05-15T00:15:19.819Z,18.19
2023-05-15T00:17:45.433Z,18.09
2023-05-15T00:20:10.156Z,17.96
2023-05-15T00:22:35.495Z,17.88
2023-05-15T00:24:59.023Z,17.84
2023-05-15T00:27:23.654Z,17.86
2023-05-15T00:28:33.793Z,17.72
2023-05-15T00:30:58.317Z,17.79
2023-05-15T00:33:24.806Z,17.75
2023-05-15T00:34:36.149Z,17.59
2023-05-15T00:35:46.744Z,17.49
2023-05-15T00:38:12.260Z,17.49
2023-05-15T00:40:39.208Z,17.49
2023-05-15T00:43:05.764Z,17.51
2023-05-15T00:45:32.077Z,17.64
2023-05-15T00:48:01.663Z,17.77
2023-05-15T00:50:29.952Z,17.97
2023-05-15T00:51:41.381Z,17.96
2023-05-15T00:54:09.526Z,18.25
2023-05-15T00:56:35.882Z,18.35
2023-05-15T00:59:06.224Z,18.45
2023-05-15T01:01:34.303Z,18.54
2023-05-15T01:02:46.460Z,18.47
2023-05-15T01:03:55.469Z,18.51
2023-05-15T01:05:07.339Z,18.58
2023-05-15T01:07:35.502Z,18.82
2023-05-15T01:08:48.328Z,18.74
2023-05-15T01:11:16.236Z,18.90
2023-05-15T01:13:42.436Z,18.98
2023-05-15T01:14:52.134Z,18.93
2023-05-15T01:17:37.418Z,19.11
2023-05-15T01:18:47.419Z,19.03
2023-05-15T01:21:39.337Z,19.19
2023-05-15T01:24:39.508Z,19.28
2023-05-15T01:26:08.866Z,19.19
2023-05-15T01:28:46.964Z,19.29
2023-05-15T01:31:22.636Z,19.26
2023-05-15T01:33:57.237Z,19.29
2023-05-15T01:38:15.488Z,19.33
2023-05-15T01:40:48.333Z,19.30
2023-05-15T01:43:29.033Z,19.30
2023-05-15T01:46:16.604Z,19.31
2023-05-15T01:47:29.507Z,19.18
2023-05-15T01:49:58.376Z,19.27
2023-05-15T01:53:51.009Z,19.18
2023-05-15T01:55:09.595Z,19.04
2023-05-15T01:57:38.912Z,19.01
2023-05-15T02:00:10.251Z,18.88
2023-05-15T02:02:43.649Z,18.78
2023-05-15T02:05:10.753Z,18.71
2023-05-15T02:07:36.707Z,18.69
2023-05-15T02:10:03.139Z,18.71
2023-05-15T02:12:32.383Z,18.73
2023-05-15T02:15:00.237Z,18.80
2023-05-15T02:17:29.210Z,18.87
2023-05-15T02:19:53.830Z,18.90
2023-05-15T02:21:03.335Z,18.79
2023-05-15T02:23:28.154Z,18.90
2023-05-15T02:24:36.828Z,18.76
2023-05-15T02:27:14.739Z,18.84
2023-05-15T02:30:11.334Z,18.85
2023-05-15T02:33:18.568Z,18.86
2023-05-15T02:35:57.004Z,18.93
2023-05-15T02:37:10.535Z,18.84
2023-05-15T02:39:49.402Z,18.99
2023-05-15T02:41:01.113Z,18.85
2023-05-15T02:43:29.220Z,18.89
2023-05-15T02:44:41.263Z,18.70
2023-05-15T02:47:08.892Z,18.73
2023-05-15T02:49:35.319Z,18.73
2023-05-15T02:52:01.926Z,18.70
2023-05-15T02:54:27.622Z,18.74
2023-05-15T02:56:52.677Z,18.80
2023-05-15T02:59:19.887Z,18.80
2023-05-15T03:01:46.865Z,18.80
2023-05-15T03:04:13.751Z,18.87
2023-05-15T03:06:37.442Z,19.05
2023-05-15T03:09:04.182Z,19.26
2023-05-15T03:10:13.567Z,19.24
2023-05-15T03:13:01.361Z,19.53
2023-05-15T03:14:10.658Z,19.53
2023-05-15T03:16:36.883Z,19.81
2023-05-15T03:17:46.736Z,19.76
2023-05-15T03:19:03.391Z,19.84
2023-05-15T03:20:14.712Z,19.97
2023-05-15T03:22:38.204Z,20.39
2023-05-15T03:25:03.028Z,20.52
2023-05-15T03:27:28.745Z,20.70
2023-05-15T03:29:54.407Z,20.88
2023-05-15T03:31:04.511Z,20.91
2023-05-15T03:33:28.132Z,21.88
2023-05-15T03:35:54.223Z,22.73
2023-05-15T03:38:20.741Z,23.37
2023-05-15T03:40:45.594Z,23.80
2023-05-15T03:43:11.963Z,24.02
2023-05-15T03:45:36.600Z,24.19
2023-05-15T03:48:01.134Z,24.40
2023-05-15T03:50:25.362Z,24.79
2023-05-15T03:51:36.076Z,24.80
2023-05-15T03:54:04.384Z,24.97
2023-05-15T03:55:13.483Z,24.92
2023-05-15T03:57:35.263Z,24.93
2023-05-15T03:58:44.833Z,24.94
2023-05-15T04:01:09.390Z,25.13
2023-05-15T04:03:33.921Z,25.04
2023-05-15T04:06:00.712Z,24.93
2023-05-15T04:07:10.216Z,24.72
2023-05-15T04:09:34.967Z,24.86
2023-05-15T04:11:59.839Z,24.92
2023-05-15T04:13:09.397Z,24.82
2023-05-15T04:14:19.029Z,24.76
2023-05-15T04:16:43.391Z,24.81
2023-05-15T04:19:09.154Z,24.80
2023-05-15T04:20:21.673Z,24.68
2023-05-15T04:21:32.271Z,24.71
2023-05-15T04:22:41.981Z,24.75
2023-05-15T04:26:14.453Z,24.90
2023-05-15T04:28:40.272Z,24.94
2023-05-15T04:31:06.913Z,25.02
2023-05-15T04:33:31.896Z,25.04
2023-05-15T04:36:15.303Z,24.96
2023-05-15T04:39:48.081Z,24.95
2023-05-15T04:42:12.354Z,25.00
2023-05-15T04:44:58.086Z,24.77
2023-05-15T04:47:22.161Z,24.72
2023-05-15T04:49:50.134Z,24.75
2023-05-15T04:52:14.215Z,24.89
2023-05-15T04:54:37.865Z,24.98
2023-05-15T04:57:21.923Z,24.93
2023-05-15T04:59:47.372Z,24.85
2023-05-15T05:02:12.354Z,24.84
2023-05-15T05:04:57.046Z,24.94
2023-05-15T05:07:22.056Z,25.01
2023-05-15T05:09:46.185Z,25.10
2023-05-15T05:12:12.874Z,25.30
2023-05-15T05:14:36.934Z,25.45
2023-05-15T05:17:03.284Z,25.78
2023-05-15T05:19:28.272Z,26.11
2023-05-15T05:21:52.106Z,26.47
2023-05-15T05:24:16.107Z,26.54
2023-05-15T05:26:41.807Z,26.64
2023-05-15T05:29:05.068Z,26.67
2023-05-15T05:31:30.886Z,26.65
2023-05-15T05:33:57.166Z,26.73
2023-05-15T05:35:06.570Z,26.70
2023-05-15T05:37:30.797Z,26.92
2023-05-15T05:39:55.280Z,26.93
2023-05-15T05:41:05.128Z,26.88
2023-05-15T05:43:29.281Z,27.12
2023-05-15T05:45:55.857Z,27.32
2023-05-15T05:47:05.782Z,27.18
2023-05-15T05:49:32.002Z,27.31
2023-05-15T05:50:41.808Z,27.21
2023-05-15T05:53:05.711Z,27.44
2023-05-15T05:55:30.854Z,27.54
2023-05-15T05:57:58.422Z,27.72
2023-05-15T06:00:25.828Z,28.01
2023-05-15T06:01:35.063Z,28.04
2023-05-15T06:04:02.268Z,28.41
2023-05-15T06:06:26.987Z,28.60
2023-05-15T06:08:50.995Z,28.69
2023-05-15T06:11:15.397Z,28.66
2023-05-15T06:13:39.991Z,28.68
2023-05-15T06:16:05.924Z,28.87
2023-05-15T06:18:30.006Z,29.08
2023-05-15T06:20:54.143Z,29.22
2023-05-15T06:23:18.797Z,29.16
2023-05-15T06:25:42.978Z,29.16
2023-05-15T06:28:08.530Z,29.20
2023-05-15T06:29:18.643Z,29.14
2023-05-15T06:30:28.826Z,29.16
2023-05-15T06:32:53.337Z,29.36
2023-05-15T06:34:02.871Z,29.26
2023-05-15T06:36:28.821Z,29.61
2023-05-15T06:38:55.352Z,29.70
2023-05-15T06:41:22.162Z,29.64
2023-05-15T06:44:07.721Z,29.76
2023-05-15T06:46:32.747Z,29.93
2023-05-15T06:48:57.930Z,30.06
2023-05-15T06:51:23.278Z,30.17
2023-05-15T06:53:47.874Z,30.10
2023-05-15T06:54:57.501Z,30.00
2023-05-15T06:57:23.425Z,30.12
2023-05-15T06:58:33.565Z,30.05
2023-05-15T07:00:59.345Z,30.31
2023-05-15T07:03:25.267Z,30.43
2023-05-15T07:04:33.888Z,30.38
2023-05-15T07:06:59.590Z,30.56
2023-05-15T07:09:25.198Z,30.54
2023-05-15T07:10:34.638Z,30.38
2023-05-15T07:12:59.662Z,30.41
2023-05-15T07:15:25.346Z,30.36
2023-05-15T07:16:34.254Z,30.27
2023-05-15T07:17:42.995Z,30.32
2023-05-15T07:18:51.836Z,30.39
2023-05-15T07:20:00.735Z,30.47
2023-05-15T07:22:29.313Z,30.64
2023-05-15T07:23:38.187Z,30.53
2023-05-15T07:24:48.265Z,30.35
2023-05-15T07:27:14.186Z,30.41
2023-05-15T07:29:37.659Z,30.31
2023-05-15T07:32:04.304Z,30.23
2023-05-15T07:34:29.392Z,30.09
2023-05-15T07:36:53.053Z,29.87
2023-05-15T07:39:17.854Z,29.56
2023-05-15T07:41:41.724Z,29.28
2023-05-15T07:44:06.948Z,29.05
2023-05-15T08:01:08.107Z,27.23
2023-05-15T08:03:33.934Z,27.28
2023-05-15T08:04:43.837Z,27.25
2023-05-15T08:05:52.505Z,27.34
2023-05-15T08:07:02.612Z,27.41
2023-05-15T08:09:28.042Z,27.56
2023-05-15T08:11:53.668Z,27.58
2023-05-15T08:13:03.126Z,27.50
2023-05-15T08:15:29.215Z,27.57
2023-05-15T08:17:53.312Z,27.56
2023-05-15T08:20:19.619Z,27.52
2023-05-15T08:22:46.013Z,27.51
2023-05-15T08:25:10.141Z,27.48
2023-05-15T08:27:35.456Z,27.47
2023-05-15T08:28:45.669Z,27.37
2023-05-15T08:31:11.362Z,27.45
2023-05-15T08:33:36.034Z,27.30
2023-05-15T08:36:03.403Z,27.14
2023-05-15T08:38:27.367Z,27.08
2023-05-15T08:40:55.270Z,27.01
2023-05-15T08:43:41.151Z,26.95
2023-05-15T08:46:07.716Z,26.89
2023-05-15T08:48:38.410Z,26.87
2023-05-15T08:51:13.960Z,26.92
2023-05-15T08:53:41.244Z,27.01
2023-05-15T08:56:07.232Z,26.99
2023-05-15T08:58:34.209Z,26.96
2023-05-15T09:01:00.332Z,26.92
2023-05-15T09:03:25.593Z,26.86
2023-05-15T09:05:52.728Z,26.82
2023-05-15T09:08:21.504Z,26.83
2023-05-15T09:10:51.564Z,26.85
2023-05-15T09:13:21.540Z,26.83
2023-05-15T09:15:48.796Z,26.78
2023-05-15T09:18:25.197Z,26.85
2023-05-15T09:20:51.077Z,26.88
2023-05-15T09:23:42.873Z,26.80
2023-05-15T09:24:53.462Z,26.64
2023-05-15T09:27:20.872Z,26.61
2023-05-15T09:29:53.127Z,26.52
2023-05-15T09:32:20.390Z,26.50
2023-05-15T09:35:30.549Z,26.51
2023-05-15T09:38:01.769Z,26.57
2023-05-15T09:40:30.270Z,26.55
2023-05-15T09:42:58.819Z,26.46
2023-05-15T09:45:37.788Z,26.44
2023-05-15T09:48:05.280Z,26.45
2023-05-15T09:50:34.618Z,26.54
2023-05-15T09:53:00.774Z,26.30
2023-05-15T09:55:48.714Z,26.33
2023-05-15T09:59:34.012Z,26.48
2023-05-15T10:02:02.086Z,26.53
2023-05-15T10:04:31.973Z,26.60
2023-05-15T10:06:57.019Z,26.70
2023-05-15T10:09:25.214Z,26.71
2023-05-15T10:11:55.069Z,26.72
2023-05-15T10:14:23.499Z,26.71
2023-05-15T10:16:48.882Z,26.67
2023-05-15T10:19:21.515Z,26.70
2023-05-15T10:21:48.994Z,26.70
2023-05-15T10:24:16.098Z,26.69
2023-05-15T10:27:00.747Z,26.67
2023-05-15T10:29:28.655Z,26.73
2023-05-15T10:31:55.618Z,26.79
2023-05-15T10:34:24.449Z,26.77
2023-05-15T10:36:54.118Z,26.77
2023-05-15T10:39:26.315Z,26.76
2023-05-15T10:41:57.822Z,26.77
2023-05-15T10:43:11.933Z,26.66
2023-05-15T10:45:39.269Z,26.74
2023-05-15T10:48:07.026Z,26.73
2023-05-15T10:50:33.083Z,26.71
2023-05-15T10:52:58.372Z,26.70
2023-05-15T10:55:25.952Z,26.72
2023-05-15T10:57:54.791Z,26.69
2023-05-15T11:00:27.808Z,26.67
2023-05-15T11:02:56.606Z,26.66
2023-05-15T11:05:52.305Z,26.70
2023-05-15T11:08:31.441Z,26.73
2023-05-15T11:09:42.118Z,26.59
2023-05-15T11:13:27.374Z,26.59
2023-05-15T11:15:58.396Z,26.60
2023-05-15T11:18:26.187Z,26.59
2023-05-15T11:20:56.185Z,26.65
2023-05-15T11:23:41.373Z,26.75
2023-05-15T11:26:12.831Z,26.78
2023-05-15T11:27:25.331Z,26.67
2023-05-15T11:30:21.629Z,26.73
2023-05-15T11:33:09.312Z,26.83
2023-05-15T11:35:51.319Z,26.84
2023-05-15T11:38:24.436Z,26.96
2023-05-15T11:41:03.963Z,27.08
2023-05-15T11:43:36.055Z,27.15
2023-05-15T11:46:09.787Z,27.15
2023-05-15T11:48:35.334Z,27.15
2023-05-15T11:49:43.785Z,27.07
2023-05-15T11:52:08.472Z,27.19
2023-05-15T11:54:34.653Z,27.18
2023-05-15T11:57:08.034Z,27.14
2023-05-15T11:59:35.348Z,27.03
2023-05-15T12:02:06.751Z,26.95
2023-05-15T12:04:44.953Z,26.90
2023-05-15T12:07:11.095Z,26.92
2023-05-15T12:09:40.932Z,26.97
2023-05-15T12:12:10.589Z,26.96
2023-05-15T12:14:35.229Z,26.88
2023-05-15T12:17:03.825Z,26.75
2023-05-15T12:19:29.737Z,26.69
2023-05-15T12:21:55.457Z,26.72
2023-05-15T12:25:30.866Z,26.75
2023-05-15T12:27:56.236Z,26.78
2023-05-15T12:40:38.746Z,26.80
2023-05-15T12:43:07.417Z,26.75
2023-05-15T12:45:34.781Z,26.73
2023-05-15T12:48:00.615Z,26.71
2023-05-15T12:50:28.573Z,26.73
2023-05-15T12:53:06.409Z,26.78
2023-05-15T12:55:37.040Z,26.80
2023-05-15T12:58:08.886Z,26.79
2023-05-15T12:59:20.640Z,26.68
2023-05-15T13:01:47.607Z,26.76
2023-05-15T13:04:13.863Z,26.76
2023-05-15T13:06:46.737Z,26.76
2023-05-15T13:09:09.489Z,26.76
2023-05-15T13:11:44.757Z,26.75
2023-05-15T13:12:54.374Z,26.63
2023-05-15T13:17:02.146Z,26.71
2023-05-15T13:19:30.449Z,26.71
2023-05-15T13:22:01.477Z,26.76
2023-05-15T13:24:47.915Z,26.74
2023-05-15T13:27:11.740Z,26.75
2023-05-15T13:29:36.073Z,26.76
2023-05-15T13:32:00.190Z,26.77
2023-05-15T13:34:26.221Z,26.76
2023-05-15T13:36:51.856Z,26.74
2023-05-15T13:39:16.961Z,26.76
2023-05-15T13:41:43.053Z,26.77
2023-05-15T13:44:08.349Z,26.82
2023-05-15T13:46:33.583Z,26.83
2023-05-15T13:49:03.569Z,26.80
2023-05-15T13:51:34.365Z,26.79
2023-05-15T13:54:02.032Z,26.76
2023-05-15T13:56:27.145Z,26.72
2023-05-15T13:58:53.023Z,26.68
2023-05-15T14:01:16.911Z,26.67
2023-05-15T14:03:41.728Z,26.62
2023-05-15T14:06:08.524Z,26.55
2023-05-15T14:08:51.623Z,26.49
2023-05-15T14:11:16.715Z,26.46
2023-05-15T14:14:52.714Z,26.38
2023-05-15T14:16:03.694Z,26.26
2023-05-15T14:17:14.826Z,26.23
2023-05-15T14:19:41.612Z,26.32
2023-05-15T14:20:50.558Z,26.20
2023-05-15T14:23:15.418Z,26.31
2023-05-15T14:25:40.943Z,26.27
2023-05-15T14:28:04.912Z,26.25
2023-05-15T14:30:30.695Z,26.23
2023-05-15T14:32:54.076Z,26.22
2023-05-15T14:35:19.973Z,26.18
2023-05-15T14:37:45.649Z,26.16
2023-05-15T14:40:12.094Z,26.14
2023-05-15T14:41:21.463Z,26.03
2023-05-15T14:43:45.757Z,26.14
2023-05-15T14:44:54.804Z,26.05
2023-05-15T14:46:05.202Z,26.06
2023-05-15T14:48:29.463Z,26.13
2023-05-15T14:50:53.624Z,26.13
2023-05-15T14:52:09.961Z,26.01
2023-05-15T14:55:04.896Z,26.08
2023-05-15T14:56:03.639Z,25.97
2023-05-15T14:58:28.867Z,26.07
2023-05-15T15:00:53.548Z,26.06
2023-05-15T15:03:18.493Z,26.05
2023-05-15T15:05:43.772Z,26.03
2023-05-15T15:08:11.476Z,26.00
2023-05-15T15:10:39.174Z,26.00
2023-05-15T15:13:04.373Z,25.96
2023-05-15T15:15:30.296Z,25.93
2023-05-15T15:17:58.447Z,25.88
2023-05-15T15:20:26.101Z,25.86
2023-05-15T15:22:52.333Z,25.80
2023-05-15T15:25:18.188Z,25.81
2023-05-15T15:26:27.180Z,25.69
2023-05-15T15:28:55.799Z,25.77
2023-05-15T15:31:21.243Z,25.76
2023-05-15T15:33:47.364Z,25.75
2023-05-15T15:36:12.632Z,25.75
2023-05-15T15:38:39.208Z,25.77
2023-05-15T15:41:04.999Z,25.79
2023-05-15T15:43:28.799Z,25.79
2023-05-15T15:45:54.715Z,25.79
2023-05-15T15:48:21.206Z,25.80
2023-05-15T15:49:31.666Z,25.70
2023-05-15T15:51:55.666Z,25.83
2023-05-15T15:54:19.713Z,25.80
2023-05-15T15:56:43.765Z,25.81
2023-05-15T15:59:07.194Z,25.78
2023-05-15T16:01:32.606Z,25.79
2023-05-15T16:03:57.362Z,25.77
2023-05-15T16:06:23.876Z,25.77
2023-05-15T16:07:34.195Z,25.66
2023-05-15T16:10:10.661Z,25.74
2023-05-15T16:12:27.644Z,25.72
2023-05-15T16:14:51.172Z,25.71
2023-05-15T16:17:15.991Z,25.68
2023-05-15T16:19:41.395Z,25.64
2023-05-15T16:22:05.202Z,25.60
2023-05-15T16:24:52.530Z,25.58
2023-05-15T16:27:38.377Z,25.56
2023-05-15T16:30:01.923Z,25.53
2023-05-15T16:31:18.369Z,25.42
2023-05-15T16:33:43.810Z,25.49
2023-05-15T16:36:07.676Z,25.46
2023-05-15T16:38:32.350Z,25.43
2023-05-15T16:41:01.722Z,25.40
2023-05-15T16:43:27.407Z,25.37
2023-05-15T16:45:51.815Z,25.34
2023-05-15T16:48:16.515Z,25.28
2023-05-15T16:50:41.031Z,25.24
2023-05-15T16:53:04.996Z,25.18
2023-05-15T16:55:32.998Z,25.17
2023-05-15T16:57:57.280Z,25.12
2023-05-15T17:00:22.736Z,25.08
2023-05-15T17:02:47.610Z,25.06
2023-05-15T17:05:13.021Z,25.04
2023-05-15T17:07:38.563Z,25.01
2023-05-15T17:08:47.950Z,24.91
2023-05-15T17:11:13.327Z,24.97
2023-05-15T17:13:40.210Z,24.92
2023-05-15T17:16:04.957Z,24.88
2023-05-15T17:18:29.770Z,24.82
2023-05-15T17:20:53.415Z,24.77
2023-05-15T17:23:17.260Z,24.75
2023-05-15T17:25:42.151Z,24.71
2023-05-15T17:26:51.583Z,24.59
2023-05-15T17:29:34.871Z,24.65
2023-05-15T17:31:59.111Z,24.61
2023-05-15T17:34:23.773Z,24.57
2023-05-15T17:36:48.386Z,24.53
2023-05-15T17:39:13.357Z,24.48
2023-05-15T17:41:38.683Z,24.44
2023-05-15T17:42:47.758Z,24.31
2023-05-15T17:43:56.767Z,24.28
2023-05-15T17:45:07.532Z,24.28
2023-05-15T17:47:32.162Z,24.32
2023-05-15T17:49:58.593Z,24.29
2023-05-15T17:51:09.202Z,24.17
2023-05-15T17:53:35.153Z,24.24
2023-05-15T17:56:00.741Z,24.20
2023-05-15T17:58:24.910Z,24.17
2023-05-15T17:59:34.912Z,24.06
2023-05-15T18:00:44.285Z,24.04
2023-05-15T18:03:09.929Z,24.11
2023-05-15T18:04:20.205Z,24.02
2023-05-15T18:05:29.345Z,24.02
2023-05-15T18:06:39.104Z,24.02
2023-05-15T18:09:24.962Z,24.10
2023-05-15T18:11:48.844Z,24.09
2023-05-15T18:12:59.099Z,23.97
2023-05-15T18:15:25.629Z,24.02
2023-05-15T18:16:36.121Z,23.89
2023-05-15T18:19:02.093Z,23.96
2023-05-15T18:21:28.455Z,23.91
2023-05-15T18:22:38.298Z,23.78
2023-05-15T18:23:47.274Z,23.74
2023-05-15T18:26:12.009Z,23.78
2023-05-15T18:27:21.003Z,23.64
2023-05-15T18:29:46.454Z,23.71
2023-05-15T18:32:10.584Z,23.69
2023-05-15T18:34:34.559Z,23.66
2023-05-15T18:37:00.320Z,23.64
2023-05-15T18:39:25.803Z,23.63
2023-05-15T18:41:50.577Z,23.60
2023-05-15T18:42:59.706Z,23.47
2023-05-15T18:45:26.190Z,23.53
2023-05-15T18:47:51.473Z,23.49
2023-05-15T18:50:17.366Z,23.44
2023-05-15T18:52:44.030Z,23.35
2023-05-15T18:55:11.808Z,23.29
2023-05-15T18:57:37.804Z,23.24
2023-05-15T19:00:03.512Z,23.17
2023-05-15T19:02:27.254Z,23.11
2023-05-15T19:04:53.085Z,23.05
2023-05-15T19:07:18.966Z,23.07
2023-05-15T19:09:44.249Z,23.03
2023-05-15T19:12:10.325Z,23.00
2023-05-15T19:14:35.011Z,22.97
2023-05-15T19:15:54.419Z,22.87
2023-05-15T19:18:18.633Z,22.96
2023-05-15T19:20:44.261Z,22.94
2023-05-15T19:23:09.161Z,22.90
2023-05-15T19:25:32.644Z,22.87
2023-05-15T19:27:56.905Z,22.83
2023-05-15T19:30:42.064Z,22.81
2023-05-15T19:33:07.856Z,22.81
2023-05-15T19:35:34.530Z,22.81
2023-05-15T19:38:01.108Z,22.78
2023-05-15T19:40:25.312Z,22.76
2023-05-15T19:42:49.136Z,22.73
2023-05-15T19:45:18.253Z,22.69
2023-05-15T19:47:42.478Z,22.65
2023-05-15T19:50:07.793Z,22.60
2023-05-15T19:52:33.027Z,22.61
2023-05-15T19:54:58.702Z,22.62
2023-05-15T19:57:24.627Z,22.56
2023-05-15T19:59:48.243Z,22.53
2023-05-15T20:02:13.034Z,22.54
2023-05-15T20:03:23.075Z,22.44
2023-05-15T20:05:50.215Z,22.54
2023-05-15T20:08:14.640Z,22.53
2023-05-15T20:10:41.274Z,22.54
2023-05-15T20:13:05.872Z,22.51
2023-05-15T20:15:32.144Z,22.44
2023-05-15T20:17:58.484Z,22.36
2023-05-15T20:20:27.248Z,22.29
2023-05-15T20:22:52.569Z,22.23
2023-05-15T20:25:16.816Z,22.17
2023-05-15T20:27:42.527Z,22.12
2023-05-15T20:30:09.168Z,22.03
2023-05-15T20:32:33.819Z,22.01
2023-05-15T20:35:00.789Z,21.98
2023-05-15T20:36:10.435Z,21.87
2023-05-15T20:38:38.024Z,21.93
2023-05-15T20:41:02.453Z,21.88
2023-05-15T20:43:28.109Z,21.82
2023-05-15T20:45:55.691Z,21.77
2023-05-15T20:48:21.988Z,21.75
2023-05-15T20:50:46.582Z,21.73
2023-05-15T20:53:11.802Z,21.68
2023-05-15T20:55:37.717Z,21.63
2023-05-15T20:58:04.078Z,21.59
2023-05-15T21:00:29.064Z,21.57
2023-05-15T21:02:55.483Z,21.52
2023-05-15T21:05:21.660Z,21.50
2023-05-15T21:07:47.269Z,21.43
2023-05-15T21:10:12.744Z,21.40
2023-05-15T21:12:36.556Z,21.39
2023-05-15T21:15:02.707Z,21.35
2023-05-15T21:17:26.368Z,21.31
2023-05-15T21:19:50.850Z,21.26
2023-05-15T21:22:17.686Z,21.24
2023-05-15T21:25:04.099Z,21.17
2023-05-15T21:27:28.738Z,21.07
2023-05-15T21:29:52.268Z,20.99
2023-05-15T21:32:23.565Z,20.98
2023-05-15T21:35:57.870Z,21.02
2023-05-15T21:38:22.150Z,21.03
2023-05-15T21:40:47.189Z,21.05
2023-05-15T21:41:56.212Z,20.93
2023-05-15T21:44:21.005Z,20.98
2023-05-15T21:46:46.233Z,20.98
2023-05-15T21:49:12.577Z,20.95
2023-05-15T21:50:21.756Z,20.82
2023-05-15T21:52:52.330Z,20.93
2023-05-15T21:55:16.192Z,20.93
2023-05-15T22:05:59.837Z,20.07
2023-05-15T22:08:23.852Z,20.04
2023-05-15T22:10:50.161Z,20.20
2023-05-15T22:13:14.144Z,20.32
2023-05-15T22:15:37.635Z,20.43
2023-05-15T22:18:05.997Z,20.52
2023-05-15T22:20:33.410Z,20.61
2023-05-15T22:22:59.055Z,20.61
2023-05-15T22:25:24.034Z,20.63
2023-05-15T22:27:49.240Z,20.66
2023-05-15T22:30:14.972Z,20.67
2023-05-15T22:32:39.378Z,20.59
2023-05-15T22:35:05.464Z,20.59
2023-05-15T22:37:32.118Z,20.59
2023-05-15T22:39:58.105Z,20.49
2023-05-15T22:42:24.142Z,20.49
2023-05-15T22:44:49.477Z,20.42
2023-05-15T22:47:13.399Z,20.34
2023-05-15T22:49:37.868Z,20.31
2023-05-15T22:52:05.055Z,20.29
2023-05-15T22:54:28.728Z,20.27
2023-05-15T22:56:53.835Z,20.30
2023-05-15T22:59:19.361Z,20.32
2023-05-15T23:01:46.917Z,20.32
2023-05-15T23:04:13.606Z,20.37
2023-05-15T23:06:43.450Z,20.39
2023-05-15T23:09:08.345Z,20.41
2023-05-15T23:11:33.314Z,20.39
2023-05-15T23:14:00.371Z,20.35
2023-05-15T23:16:26.547Z,20.33
2023-05-15T23:18:52.276Z,20.30
2023-05-15T23:21:38.172Z,20.34
2023-05-15T23:24:02.709Z,20.35
2023-05-15T23:26:27.985Z,20.31
2023-05-15T23:28:54.006Z,20.25
2023-05-15T23:31:20.258Z,20.27
2023-05-15T23:33:45.466Z,20.25
2023-05-15T23:35:01.109Z,20.15
2023-05-15T23:37:27.964Z,20.18
2023-05-15T23:39:54.425Z,20.14
2023-05-15T23:42:19.278Z,20.04
2023-05-15T23:44:44.546Z,19.95
2023-05-15T23:47:10.077Z,19.91
2023-05-15T23:49:36.145Z,19.87
2023-05-15T23:50:44.581Z,19.75
2023-05-15T23:53:10.065Z,19.84
2023-05-15T23:55:36.864Z,19.80
2023-05-15T23:56:47.047Z,19.68
2023-05-15T23:59:21.561Z,19.74
